Time;durP1;ratioP1;P1;durP2;ratioP2;P2;SDS_P1;SDS_P2;PMS_P1;PMS_P2;Temp;Humidity;BMP_temperature;BMP_pressure;BME280_temperature;BME280_humidity;BME280_pressure;Samples;Min_cycle;Max_cycle;Signal;HPM_P1;HPM_P2
2022/07/02 00:00:10;;;;;;;3.13;0.30;;;;;;;17.35;73.36;101523.47;7384114;19;20094;-76
2022/07/02 00:02:42;;;;;;;5.22;0.20;;;;;;;17.34;73.17;101521.81;7385291;19;20290;-76
2022/07/02 00:05:12;;;;;;;4.90;0.88;;;;;;;17.34;73.65;101517.31;7381980;19;20010;-76
2022/07/02 00:07:39;;;;;;;2.83;0.30;;;;;;;17.34;74.59;101525.31;7382931;19;20019;-77
2022/07/02 00:10:07;;;;;;;2.55;0.30;;;;;;;17.33;74.14;101518.31;7380184;19;20329;-77
2022/07/02 00:12:33;;;;;;;4.82;0.32;;;;;;;17.32;73.58;101513.22;7387175;19;20010;-76
2022/07/02 00:15:00;;;;;;;5.97;0.40;;;;;;;17.24;73.90;101516.75;7380880;19;20014;-77
2022/07/02 00:17:27;;;;;;;3.55;0.40;;;;;;;17.25;74.08;101520.25;7383698;19;20025;-77
2022/07/02 00:19:55;;;;;;;3.90;0.68;;;;;;;17.24;74.19;101514.09;7382226;19;20014;-77
2022/07/02 00:22:22;;;;;;;5.05;0.30;;;;;;;17.23;74.10;101508.94;7382536;19;20359;-77
2022/07/02 00:24:49;;;;;;;4.63;0.60;;;;;;;17.22;74.98;101513.44;7384466;19;20604;-77
2022/07/02 00:27:22;;;;;;;5.90;0.50;;;;;;;17.22;74.90;101513.44;7382433;19;20126;-77
2022/07/02 00:30:02;;;;;;;3.15;0.30;;;;;;;17.19;74.88;101505.81;7384407;19;20313;-76
2022/07/02 00:32:32;;;;;;;4.30;0.43;;;;;;;17.16;74.71;101514.16;7383690;19;20429;-77
2022/07/02 00:35:10;;;;;;;1.75;0.60;;;;;;;17.14;74.88;101504.69;7385779;19;20021;-76
2022/07/02 00:37:38;;;;;;;4.15;0.30;;;;;;;17.08;75.28;101508.91;7390700;19;20022;-76
2022/07/02 00:40:06;;;;;;;1.50;0.30;;;;;;;17.08;75.18;101500.91;7394175;19;20867;-76
2022/07/02 00:42:36;;;;;;;5.07;1.45;;;;;;;17.06;76.13;101502.94;7391507;19;20022;-77
2022/07/02 00:45:05;;;;;;;3.22;0.40;;;;;;;17.06;76.79;101498.47;7387948;19;20384;-76
2022/07/02 00:47:33;;;;;;;5.57;0.40;;;;;;;17.02;75.96;101489.16;7390335;19;20073;-76
2022/07/02 00:50:03;;;;;;;3.03;0.30;;;;;;;16.98;76.19;101490.53;7389978;19;20051;-77
2022/07/02 00:52:30;;;;;;;5.65;0.40;;;;;;;16.97;76.33;101490.69;7389411;19;20070;-76
2022/07/02 00:54:58;;;;;;;4.57;0.43;;;;;;;16.95;76.23;101490.91;7388767;19;20066;-76
2022/07/02 00:57:24;;;;;;;4.18;0.60;;;;;;;16.97;76.67;101485.38;7390279;19;20499;-76
2022/07/02 00:59:51;;;;;;;2.78;0.82;;;;;;;16.98;76.65;101484.38;7391401;19;20011;-76
2022/07/02 01:02:23;;;;;;;6.50;0.60;;;;;;;17.01;77.88;101478.72;7389272;19;20013;-76
2022/07/02 01:04:54;;;;;;;6.38;0.40;;;;;;;17.02;77.04;101473.19;7390335;19;20500;-76
2022/07/02 01:07:27;;;;;;;7.32;0.30;;;;;;;17.03;76.80;101474.03;7388745;19;20260;-77
2022/07/02 01:12:45;;;;;;;5.25;0.40;;;;;;;16.97;76.80;101475.56;7390976;19;20263;-76
2022/07/02 01:15:13;;;;;;;1.42;0.30;;;;;;;16.94;76.89;101467.13;7386776;19;20011;-76
2022/07/02 01:17:40;;;;;;;5.18;0.50;;;;;;;16.91;77.05;101472.81;7391592;19;20561;-77
2022/07/02 01:20:09;;;;;;;2.22;0.52;;;;;;;16.89;78.03;101473.00;7389163;19;20010;-77
2022/07/02 01:22:41;;;;;;;3.65;0.40;;;;;;;16.86;77.77;101468.03;7390285;19;20014;-77
2022/07/02 01:25:08;;;;;;;7.03;0.60;;;;;;;16.82;77.73;101469.38;7390691;19;20037;-76
2022/07/02 01:27:35;;;;;;;3.20;0.60;;;;;;;16.80;77.92;101459.94;7392016;19;20379;-76
2022/07/02 01:30:04;;;;;;;1.90;0.30;;;;;;;16.83;77.95;101457.75;7388719;19;20018;-76
2022/07/02 01:32:31;;;;;;;2.45;0.30;;;;;;;16.81;77.74;101462.41;7389691;19;20093;-78
2022/07/02 01:35:04;;;;;;;6.22;0.35;;;;;;;16.79;77.83;101461.78;7385433;19;20015;-75
2022/07/02 01:37:31;;;;;;;5.50;0.60;;;;;;;16.81;78.55;101462.41;7386630;19;20439;-77
2022/07/02 01:39:58;;;;;;;4.05;0.45;;;;;;;16.80;78.11;101465.25;7391882;19;20471;-75
2022/07/02 01:42:25;;;;;;;4.72;0.30;;;;;;;16.78;78.43;101468.09;7392194;19;20010;-76
2022/07/02 01:44:52;;;;;;;6.70;0.50;;;;;;;16.77;77.77;101469.09;7387650;19;20729;-75
2022/07/02 01:47:19;;;;;;;5.95;0.40;;;;;;;16.72;78.23;101471.44;7388556;19;20078;-78
2022/07/02 01:49:47;;;;;;;4.90;0.30;;;;;;;16.71;78.21;101463.66;7388714;19;20093;-75
2022/07/02 01:52:15;;;;;;;6.55;2.35;;;;;;;16.67;78.55;101457.84;7387758;19;20018;-76
2022/07/02 01:54:44;;;;;;;4.45;0.40;;;;;;;16.71;79.39;101453.84;7387622;19;20023;-77
2022/07/02 01:57:22;;;;;;;7.15;0.40;;;;;;;16.70;78.74;101462.00;7389272;19;20508;-77
2022/07/02 01:59:49;;;;;;;5.07;0.50;;;;;;;16.69;78.33;101463.84;7388749;19;20432;-77
2022/07/02 02:02:16;;;;;;;2.92;0.25;;;;;;;16.68;78.34;101454.19;7388939;19;20029;-77
2022/07/02 02:04:43;;;;;;;4.65;0.50;;;;;;;16.67;78.50;101453.38;7386921;19;20019;-77
2022/07/02 02:07:11;;;;;;;6.65;0.50;;;;;;;16.66;78.64;101451.72;7386477;19;20484;-77
2022/07/02 02:09:38;;;;;;;6.13;0.47;;;;;;;16.64;78.52;101455.56;7388856;19;20012;-77
2022/07/02 02:12:08;;;;;;;3.13;0.50;;;;;;;16.65;79.69;101455.41;7387062;19;20065;-77
2022/07/02 02:14:35;;;;;;;3.53;0.70;;;;;;;16.66;78.89;101457.03;7386864;19;20035;-77
2022/07/02 02:17:02;;;;;;;3.92;0.40;;;;;;;16.63;78.62;101453.91;7388491;19;20018;-75
2022/07/02 02:19:29;;;;;;;5.68;0.40;;;;;;;16.63;78.66;101462.72;7388173;19;20086;-76
2022/07/02 02:21:56;;;;;;;3.45;0.50;;;;;;;16.62;78.71;101458.38;7381683;19;20021;-77
2022/07/02 02:24:23;;;;;;;2.88;0.40;;;;;;;16.61;78.37;101458.56;7389435;19;20463;-77
2022/07/02 02:26:50;;;;;;;3.90;0.30;;;;;;;16.60;78.57;101443.63;7385730;19;20022;-76
2022/07/02 02:29:17;;;;;;;4.97;0.60;;;;;;;16.59;79.29;101448.13;7389851;19;20858;-76
2022/07/02 02:31:44;;;;;;;4.20;0.40;;;;;;;16.56;78.65;101443.13;7388391;19;20410;-76
2022/07/02 02:34:11;;;;;;;9.02;0.77;;;;;;;16.53;78.85;101445.31;7386573;19;20010;-77
2022/07/02 02:36:38;;;;;;;4.30;0.88;;;;;;;16.50;78.87;101438.53;7386926;19;20070;-77
2022/07/02 02:39:05;;;;;;;7.85;0.50;;;;;;;16.48;79.07;101437.88;7388583;19;20029;-75
2022/07/02 02:41:32;;;;;;;4.95;0.60;;;;;;;16.46;79.07;101444.34;7388750;19;20347;-76
2022/07/02 02:43:59;;;;;;;2.58;0.85;;;;;;;16.44;79.22;101441.88;7385123;19;20780;-77
2022/07/02 02:46:26;;;;;;;4.35;0.50;;;;;;;16.46;79.70;101449.66;7387008;19;20363;-77
2022/07/02 02:48:53;;;;;;;2.10;0.55;;;;;;;16.45;79.25;101445.38;7387173;19;20010;-75
2022/07/02 02:51:19;;;;;;;3.80;0.30;;;;;;;16.41;78.89;101446.69;7383954;19;20015;-78
2022/07/02 02:53:47;;;;;;;5.03;0.43;;;;;;;16.37;79.20;101453.38;7384622;19;20014;-77
2022/07/02 02:56:14;;;;;;;5.90;0.50;;;;;;;16.34;79.86;101445.75;7386168;19;20669;-77
2022/07/02 02:58:41;;;;;;;3.08;0.88;;;;;;;16.32;79.20;101445.09;7387325;19;20018;-75
2022/07/02 03:01:08;;;;;;;4.55;0.70;;;;;;;16.27;79.62;101446.47;7386222;19;20025;-77
2022/07/02 03:03:35;;;;;;;4.03;0.60;;;;;;;16.26;80.58;101444.81;7387549;19;20010;-77
2022/07/02 03:06:02;;;;;;;2.45;0.60;;;;;;;16.26;80.08;101430.69;7384592;19;20033;-76
2022/07/02 03:08:29;;;;;;;4.03;0.50;;;;;;;16.25;79.98;101445.78;7383956;19;20038;-76
2022/07/02 03:10:56;;;;;;;2.88;0.40;;;;;;;16.25;79.83;101447.66;7385159;19;20111;-76
2022/07/02 03:13:23;;;;;;;3.05;0.40;;;;;;;16.25;80.01;101442.34;7385887;19;20066;-75
2022/07/02 03:15:49;;;;;;;11.13;0.50;;;;;;;16.23;79.70;101441.69;7384265;19;20453;-76
2022/07/02 03:18:17;;;;;;;8.32;0.60;;;;;;;16.19;79.62;101441.19;7386521;19;20358;-75
2022/07/02 03:20:43;;;;;;;3.22;0.68;;;;;;;16.19;80.79;101445.69;7384522;19;20818;-76
2022/07/02 03:23:10;;;;;;;5.70;0.50;;;;;;;16.21;80.22;101444.50;7385980;19;20006;-76
2022/07/02 03:25:37;;;;;;;3.65;0.40;;;;;;;16.22;80.39;101443.50;7383290;19;20021;-76
2022/07/02 03:28:04;;;;;;;3.50;0.30;;;;;;;16.21;79.82;101447.16;7385619;19;20018;-77
2022/07/02 03:30:31;;;;;;;5.78;0.45;;;;;;;16.22;79.70;101445.31;7385527;19;20038;-76
2022/07/02 03:32:58;;;;;;;4.20;0.60;;;;;;;16.21;79.87;101436.53;7384402;19;20010;-75
2022/07/02 03:35:24;;;;;;;5.50;0.50;;;;;;;16.20;79.73;101447.34;7380937;19;20025;-77
2022/07/02 03:37:51;;;;;;;9.07;1.30;;;;;;;16.22;80.02;101448.81;7384106;19;20022;-75
2022/07/02 03:40:28;;;;;;;2.35;0.38;;;;;;;16.22;79.91;101448.81;7382702;19;20010;-77
2022/07/02 03:42:54;;;;;;;1.30;0.32;;;;;;;16.26;79.70;101446.63;7386883;19;20010;-76
2022/07/02 03:45:21;;;;;;;3.50;0.30;;;;;;;16.26;79.81;101450.09;7384807;19;20542;-76
2022/07/02 03:47:48;;;;;;;5.70;0.43;;;;;;;16.25;79.49;101442.34;7385318;19;20014;-77
2022/07/02 03:50:15;;;;;;;3.05;0.30;;;;;;;16.24;79.53;101446.00;7381222;19;20054;-76
2022/07/02 03:52:42;;;;;;;3.50;0.40;;;;;;;16.22;79.71;101440.00;7385307;19;20021;-76
2022/07/02 03:55:09;;;;;;;5.55;0.45;;;;;;;16.21;79.75;101441.00;7383500;19;20328;-76
2022/07/02 03:57:36;;;;;;;2.08;0.40;;;;;;;16.21;79.74;101446.31;7382772;19;20018;-76
2022/07/02 04:00:07;;;;;;;3.63;0.40;;;;;;;16.18;79.67;101449.34;7382225;19;20152;-76
2022/07/02 04:02:34;;;;;;;4.82;0.40;;;;;;;16.16;79.77;101448.66;7382282;19;20021;-76
2022/07/02 04:05:01;;;;;;;3.47;0.35;;;;;;;16.16;79.58;101446.00;7384394;19;20665;-76
2022/07/02 04:07:28;;;;;;;3.45;0.40;;;;;;;16.16;79.89;101446.84;7383872;19;20010;-77
2022/07/02 04:09:54;;;;;;;2.80;0.40;;;;;;;16.15;79.84;101447.84;7390551;19;20014;-77
2022/07/02 04:12:21;;;;;;;4.95;1.05;;;;;;;16.17;79.94;101455.63;7391352;19;20026;-77
2022/07/02 04:14:49;;;;;;;3.55;0.40;;;;;;;16.17;80.18;101448.50;7390948;19;20029;-76
2022/07/02 04:17:16;;;;;;;4.63;0.40;;;;;;;16.18;80.10;101450.16;7391001;19;20023;-76
2022/07/02 04:19:42;;;;;;;4.60;0.50;;;;;;;16.15;79.44;101450.50;7390219;19;20024;-76
2022/07/02 04:22:09;;;;;;;4.75;0.40;;;;;;;16.15;79.90;101450.50;7389919;19;20014;-77
2022/07/02 04:24:36;;;;;;;2.30;0.30;;;;;;;16.08;79.60;101454.88;7392598;19;20021;-77
2022/07/02 04:27:04;;;;;;;3.40;0.30;;;;;;;16.09;79.71;101455.69;7392509;19;20015;-77
2022/07/02 04:29:30;;;;;;;4.25;0.73;;;;;;;16.09;80.40;101450.38;7391467;19;20154;-76
2022/07/02 04:31:57;;;;;;;3.97;0.50;;;;;;;16.09;80.35;101447.72;7392388;19;20021;-76
2022/07/02 04:34:24;;;;;;;3.60;0.60;;;;;;;16.10;80.07;101452.84;7390915;19;20032;-77
2022/07/02 04:36:52;;;;;;;5.15;0.50;;;;;;;16.13;80.05;101451.69;7389996;19;20010;-76
2022/07/02 04:39:21;;;;;;;6.22;0.60;;;;;;;16.13;80.34;101457.00;7390806;19;20754;-76
2022/07/02 04:41:47;;;;;;;3.13;0.40;;;;;;;16.14;80.03;101450.69;7390343;19;20019;-76
2022/07/02 04:44:14;;;;;;;6.63;2.33;;;;;;;16.17;81.15;101455.63;7392438;19;20018;-76
2022/07/02 04:46:41;;;;;;;2.95;0.50;;;;;;;16.18;80.93;101458.13;7390301;19;20021;-78
2022/07/02 04:49:08;;;;;;;1.60;0.40;;;;;;;16.17;80.46;101460.94;7391538;19;20483;-76
2022/07/02 04:51:35;;;;;;;3.05;0.50;;;;;;;16.17;80.60;101460.94;7390488;19;20753;-76
2022/07/02 04:54:03;;;;;;;3.90;0.60;;;;;;;16.17;80.73;101463.59;7391894;19;20014;-77
2022/07/02 04:56:30;;;;;;;5.00;0.65;;;;;;;16.17;80.68;101456.47;7391707;19;20014;-77
2022/07/02 04:58:56;;;;;;;10.13;0.63;;;;;;;16.18;80.78;101462.63;7390229;19;20022;-76
2022/07/02 05:01:23;;;;;;;4.90;0.40;;;;;;;16.22;81.93;101455.94;7390958;19;20038;-76
2022/07/02 05:03:51;;;;;;;3.58;0.40;;;;;;;16.23;81.20;101455.78;7391765;19;20018;-77
2022/07/02 05:06:19;;;;;;;0.93;0.40;;;;;;;16.23;80.44;101455.78;7391015;19;20364;-76
2022/07/02 05:08:46;;;;;;;2.92;0.40;;;;;;;16.23;79.89;101460.25;7389051;19;20031;-77
2022/07/02 05:11:15;;;;;;;2.25;0.38;;;;;;;16.25;80.03;101455.63;7391992;19;20018;-76
2022/07/02 05:13:43;;;;;;;2.95;0.30;;;;;;;16.23;79.65;101455.78;7391731;19;20039;-77
2022/07/02 05:16:11;;;;;;;2.13;0.40;;;;;;;16.21;79.45;101452.47;7387702;19;20018;-76
2022/07/02 05:18:39;;;;;;;5.35;0.40;;;;;;;16.22;79.22;101456.78;7389309;19;20019;-77
2022/07/02 05:21:06;;;;;;;1.75;0.30;;;;;;;16.30;80.18;101457.75;7385490;19;20344;-77
2022/07/02 05:23:33;;;;;;;4.82;0.40;;;;;;;16.33;79.60;101452.91;7389452;19;20006;-76
2022/07/02 05:26:00;;;;;;;3.50;0.30;;;;;;;16.37;79.52;101451.53;7388706;19;20017;-76
2022/07/02 05:28:27;;;;;;;1.13;0.30;;;;;;;16.38;79.10;101450.56;7390673;19;20359;-75
2022/07/02 05:30:54;;;;;;;2.30;0.30;;;;;;;16.41;78.68;101454.66;7391970;19;20349;-76
2022/07/02 05:33:21;;;;;;;2.45;0.30;;;;;;;16.42;78.95;101443.06;7391060;19;20018;-76
2022/07/02 05:35:48;;;;;;;4.72;0.35;;;;;;;16.45;78.57;101462.16;7385539;19;20015;-77
2022/07/02 05:38:15;;;;;;;2.75;0.50;;;;;;;16.48;78.25;101455.63;7388816;19;20020;-77
2022/07/02 05:40:42;;;;;;;7.00;1.02;;;;;;;16.50;78.19;101454.47;7389477;19;20022;-77
2022/07/02 05:43:08;;;;;;;3.38;0.40;;;;;;;16.56;78.44;101456.41;7389249;19;20014;-78
2022/07/02 05:45:35;;;;;;;5.70;0.32;;;;;;;16.58;78.06;101451.78;7388948;19;20014;-76
2022/07/02 05:48:07;;;;;;;3.75;0.30;;;;;;;16.63;77.70;101460.06;7390734;19;20021;-76
2022/07/02 05:50:34;;;;;;;5.60;0.70;;;;;;;16.67;77.30;101460.50;7386388;19;20369;-76
2022/07/02 05:53:00;;;;;;;1.70;0.20;;;;;;;16.71;77.08;101458.34;7388763;19;20021;-76
2022/07/02 05:55:27;;;;;;;5.88;0.55;;;;;;;16.75;78.12;101457.00;7384232;19;20485;-76
2022/07/02 05:57:54;;;;;;;1.77;0.20;;;;;;;16.78;77.78;101461.94;7390498;19;20011;-76
2022/07/02 06:00:26;;;;;;;1.67;0.30;;;;;;;16.81;76.45;101465.06;7389212;19;20018;-76
2022/07/02 06:02:53;;;;;;;3.80;0.25;;;;;;;16.82;76.58;101457.91;7389803;19;20014;-76
2022/07/02 06:08:05;;;;;;;1.63;0.30;;;;;;;16.96;75.97;101470.44;7386186;19;20443;-76
2022/07/02 06:10:32;;;;;;;2.90;0.20;;;;;;;17.01;76.59;101471.56;7389656;19;20031;-77
2022/07/02 06:13:00;;;;;;;3.10;0.22;;;;;;;17.03;75.67;101466.06;7386896;19;20585;-76
2022/07/02 06:15:27;;;;;;;2.58;0.20;;;;;;;17.01;75.49;101462.75;7385870;19;20018;-76
2022/07/02 06:18:00;;;;;;;4.80;0.17;;;;;;;17.07;75.02;101468.16;7387673;19;20018;-76
2022/07/02 06:20:32;;;;;;;5.07;0.20;;;;;;;17.06;74.87;101465.72;7385936;19;20010;-76
2022/07/02 06:22:59;;;;;;;1.87;0.60;;;;;;;17.07;75.60;101468.16;7387787;19;20078;-76
2022/07/02 06:25:26;;;;;;;2.13;0.30;;;;;;;17.09;75.84;101460.03;7388786;19;20033;-77
2022/07/02 06:27:53;;;;;;;2.53;0.20;;;;;;;17.11;75.69;101468.66;7388119;19;20014;-77
2022/07/02 06:30:29;;;;;;;2.15;0.30;;;;;;;17.13;75.73;101466.63;7389389;19;20447;-80
2022/07/02 06:32:56;;;;;;;2.20;0.20;;;;;;;17.19;75.85;101465.09;7386652;19;20014;-76
2022/07/02 06:35:23;;;;;;;4.15;0.20;;;;;;;17.26;75.72;101458.88;7385667;19;20033;-77
2022/07/02 06:37:50;;;;;;;4.80;0.60;;;;;;;17.36;76.61;101463.94;7387525;19;20105;-77
2022/07/02 06:40:24;;;;;;;1.92;0.30;;;;;;;17.41;76.16;101464.22;7388824;19;20021;-80
2022/07/02 06:42:54;;;;;;;4.15;0.30;;;;;;;17.47;75.42;101460.84;7388288;19;20479;-76
2022/07/02 06:45:20;;;;;;;3.05;0.22;;;;;;;17.49;75.06;101464.97;7388039;19;20020;-77
2022/07/02 06:47:47;;;;;;;3.08;0.40;;;;;;;17.51;74.44;101470.94;7389746;19;20440;-77
2022/07/02 06:50:16;;;;;;;3.92;0.20;;;;;;;17.57;74.59;101477.38;7385551;19;20070;-77
2022/07/02 06:52:45;;;;;;;3.22;0.40;;;;;;;17.60;74.78;101474.38;7387153;19;20675;-77
2022/07/02 06:55:12;;;;;;;2.78;0.25;;;;;;;17.63;74.65;101468.66;7385541;19;20016;-76
2022/07/02 06:57:39;;;;;;;5.25;0.30;;;;;;;17.67;73.70;101471.81;7389289;19;20014;-77
2022/07/02 07:00:07;;;;;;;3.88;0.22;;;;;;;17.70;73.71;101466.94;7387842;19;20070;-77
2022/07/02 07:02:34;;;;;;;4.57;0.35;;;;;;;17.75;73.79;101466.38;7387583;19;20024;-77
2022/07/02 07:05:01;;;;;;;2.13;0.20;;;;;;;17.78;72.27;101466.81;7385542;19;20591;-76
2022/07/02 07:07:29;;;;;;;2.58;0.28;;;;;;;17.80;72.41;101462.16;7386275;19;20462;-76
2022/07/02 07:09:57;;;;;;;5.60;0.52;;;;;;;17.83;71.67;101453.78;7386779;19;20010;-77
2022/07/02 07:12:26;;;;;;;1.05;0.10;;;;;;;17.89;71.11;101462.88;7387523;19;20006;-77
2022/07/02 07:14:53;;;;;;;2.72;0.40;;;;;;;17.89;70.43;101455.72;7386948;19;20036;-77
2022/07/02 07:17:20;;;;;;;1.88;0.20;;;;;;;17.89;70.88;101457.56;7386013;19;20025;-76
2022/07/02 07:19:47;;;;;;;4.22;0.30;;;;;;;17.90;71.13;101453.88;7385776;19;20432;-77
2022/07/02 07:22:14;;;;;;;2.78;0.40;;;;;;;17.97;71.56;101457.47;7386389;19;20047;-77
2022/07/02 07:24:41;;;;;;;3.40;0.30;;;;;;;18.05;70.15;101445.88;7386563;19;20007;-75
2022/07/02 07:27:09;;;;;;;2.35;0.20;;;;;;;18.04;68.87;101458.34;7387160;19;20022;-76
2022/07/02 07:29:36;;;;;;;0.75;0.20;;;;;;;18.05;69.42;101449.38;7386215;19;20022;-76
2022/07/02 07:32:03;;;;;;;0.45;0.05;;;;;;;18.09;69.22;101450.63;7387233;19;20018;-76
2022/07/02 07:34:30;;;;;;;3.30;0.20;;;;;;;18.12;69.28;101444.13;7385763;19;20014;-78
2022/07/02 07:36:58;;;;;;;1.20;0.20;;;;;;;18.18;69.17;101441.56;7382748;19;20018;-77
2022/07/02 07:39:25;;;;;;;2.22;0.40;;;;;;;18.27;68.68;101442.25;7385529;19;20022;-77
2022/07/02 07:41:52;;;;;;;1.83;0.10;;;;;;;18.43;66.36;101454.53;7386678;19;20011;-76
2022/07/02 07:44:19;;;;;;;1.58;0.20;;;;;;;18.64;66.12;101451.91;7385191;19;20320;-76
2022/07/02 07:46:46;;;;;;;6.85;2.28;;;;;;;19.07;65.25;101453.53;7385019;19;20020;-77
2022/07/02 07:49:15;;;;;;;7.35;1.17;;;;;;;19.61;64.19;101455.56;7382492;19;20018;-77
2022/07/02 07:51:46;;;;;;;4.00;0.77;;;;;;;19.92;62.86;101461.28;7384727;19;20022;-77
2022/07/02 07:54:17;;;;;;;0.50;0.15;;;;;;;19.99;60.25;101450.63;7386539;19;20019;-78
2022/07/02 07:56:44;;;;;;;4.97;1.20;;;;;;;19.99;60.92;101456.00;7383902;19;20089;-79
2022/07/02 07:59:11;;;;;;;3.78;1.05;;;;;;;19.90;60.52;101454.50;7386659;19;20086;-78
2022/07/02 08:01:38;;;;;;;7.45;2.33;;;;;;;19.77;61.29;101454.44;7384247;19;20048;-76
2022/07/02 08:04:05;;;;;;;3.83;0.93;;;;;;;19.72;61.32;101455.03;7382297;19;20106;-77
2022/07/02 08:06:32;;;;;;;1.58;0.30;;;;;;;19.67;60.81;101457.47;7384353;19;20098;-76
2022/07/02 08:08:59;;;;;;;1.50;0.22;;;;;;;19.56;59.02;101458.00;7380841;19;20476;-76
2022/07/02 08:11:27;;;;;;;0.63;0.10;;;;;;;19.47;58.95;101453.84;7386767;19;20018;-77
2022/07/02 08:13:54;;;;;;;2.13;0.20;;;;;;;19.33;58.94;101446.75;7386143;19;20019;-76
2022/07/02 08:16:21;;;;;;;1.75;0.10;;;;;;;19.31;59.95;101449.59;7383490;19;20006;-77
2022/07/02 08:18:48;;;;;;;3.22;0.10;;;;;;;19.33;59.92;101449.41;7384119;19;20015;-78
2022/07/02 08:21:15;;;;;;;0.82;0.13;;;;;;;19.33;60.78;101450.25;7380902;19;20093;-78
2022/07/02 08:23:42;;;;;;;2.05;0.10;;;;;;;19.35;61.64;101448.19;7384903;19;20027;-77
2022/07/02 08:26:09;;;;;;;0.98;0.10;;;;;;;19.36;60.74;101452.50;7383155;19;20018;-77
2022/07/02 08:28:36;;;;;;;2.85;0.20;;;;;;;19.39;59.50;101456.66;7383402;19;20531;-77
2022/07/02 08:31:03;;;;;;;1.85;0.10;;;;;;;19.41;59.05;101449.25;7385510;19;20022;-76
2022/07/02 08:33:30;;;;;;;4.10;0.70;;;;;;;19.41;59.41;101438.56;7384745;19;20015;-77
2022/07/02 08:35:57;;;;;;;7.18;0.30;;;;;;;19.40;58.52;101434.28;7379093;19;20359;-78
2022/07/02 08:38:24;;;;;;;5.63;0.30;;;;;;;19.36;58.58;101438.31;7381742;19;20090;-75
2022/07/02 08:40:51;;;;;;;2.65;0.10;;;;;;;19.39;59.12;101432.63;7383722;19;20704;-75
2022/07/02 08:43:22;;;;;;;0.40;0.10;;;;;;;19.40;60.58;101431.59;7383863;19;20094;-75
2022/07/02 08:45:52;;;;;;;1.08;0.10;;;;;;;19.43;59.73;101433.88;7385240;19;20435;-75
2022/07/02 08:48:20;;;;;;;0.75;0.10;;;;;;;19.49;58.98;101422.44;7386516;19;20022;-75
2022/07/02 08:50:48;;;;;;;6.63;0.30;;;;;;;19.50;58.63;101416.09;7380871;19;20051;-75
2022/07/02 08:53:18;;;;;;;2.83;0.28;;;;;;;19.50;58.27;101416.91;7382298;19;20365;-76
2022/07/02 08:55:46;;;;;;;2.67;0.20;;;;;;;19.54;58.37;101420.00;7388263;19;20426;-76
2022/07/02 08:58:14;;;;;;;1.08;0.15;;;;;;;19.62;57.83;101425.19;7389366;19;20019;-74
2022/07/02 09:00:42;;;;;;;3.70;0.10;;;;;;;19.69;57.64;101411.88;7387841;19;20639;-76
2022/07/02 09:03:11;;;;;;;3.13;0.15;;;;;;;19.74;56.79;101410.25;7389981;19;20018;-75
2022/07/02 09:05:40;;;;;;;1.48;0.10;;;;;;;19.81;56.41;101410.28;7389017;19;20018;-76
2022/07/02 09:08:14;;;;;;;1.77;0.10;;;;;;;19.87;55.46;101407.63;7389117;19;20051;-75
2022/07/02 09:10:45;;;;;;;2.45;0.10;;;;;;;19.87;55.30;101410.31;7388294;19;20018;-74
2022/07/02 09:13:15;;;;;;;2.60;0.17;;;;;;;19.90;55.93;101411.75;7389515;19;20042;-75
2022/07/02 09:15:44;;;;;;;3.03;0.15;;;;;;;19.92;55.28;101405.19;7388514;19;20714;-76
2022/07/02 09:18:12;;;;;;;3.65;0.20;;;;;;;19.96;55.20;101408.31;7389676;19;20127;-75
2022/07/02 09:20:39;;;;;;;3.80;0.30;;;;;;;20.00;55.45;101406.88;7386370;19;20502;-76
2022/07/02 09:23:19;;;;;;;1.15;0.20;;;;;;;20.07;55.09;101411.19;7391680;19;20014;-78
2022/07/02 09:25:48;;;;;;;1.63;0.20;;;;;;;20.08;55.17;101398.66;7388511;19;20051;-75
2022/07/02 09:28:16;;;;;;;4.15;0.10;;;;;;;20.09;55.15;101403.00;7387942;19;20015;-76
2022/07/02 09:30:47;;;;;;;2.05;0.20;;;;;;;20.15;54.89;101398.69;7389107;19;20054;-75
2022/07/02 09:33:35;;;;;;;1.75;0.22;;;;;;;20.18;54.84;101403.63;7389290;19;20060;-75
2022/07/02 09:36:11;;;;;;;6.82;0.30;;;;;;;20.27;55.93;101392.53;7383763;19;20122;-76
2022/07/02 09:38:47;;;;;;;5.93;0.85;;;;;;;20.33;55.07;101389.09;7387875;19;20021;-76
2022/07/02 09:41:26;;;;;;;1.33;0.10;;;;;;;20.34;53.64;101388.06;7389938;19;20022;-77
2022/07/02 09:44:08;;;;;;;3.88;0.35;;;;;;;20.44;54.87;101385.00;7389876;19;20499;-77
2022/07/02 09:46:54;;;;;;;2.80;0.57;;;;;;;20.49;54.84;101390.56;7387172;19;20066;-78
2022/07/02 09:49:32;;;;;;;2.88;0.40;;;;;;;20.55;55.48;101388.94;7387075;19;20011;-76
2022/07/02 09:52:03;;;;;;;1.00;0.20;;;;;;;20.58;53.50;101388.50;7385956;19;20014;-77
2022/07/02 09:54:30;;;;;;;19.33;6.10;;;;;;;20.56;53.45;101382.56;7386595;19;20010;-76
2022/07/02 09:56:58;;;;;;;4.85;1.13;;;;;;;20.61;54.00;101388.13;7384405;19;20014;-75
2022/07/02 09:59:42;;;;;;;4.07;0.88;;;;;;;20.66;53.89;101382.97;7348571;19;20037;-79
2022/07/02 10:02:23;;;;;;;2.38;0.40;;;;;;;20.67;53.49;101382.75;7379979;19;20011;-79
2022/07/02 10:04:51;;;;;;;2.95;0.60;;;;;;;20.68;53.07;101388.94;7385334;19;20010;-80
2022/07/02 10:07:21;;;;;;;13.27;5.53;;;;;;;20.73;52.86;101394.47;7381306;19;20022;-79
2022/07/02 10:09:49;;;;;;;3.13;0.40;;;;;;;20.75;53.64;101393.25;7389063;19;20021;-78
2022/07/02 10:12:17;;;;;;;2.55;0.20;;;;;;;20.83;53.31;101401.06;7389137;19;20066;-78
2022/07/02 10:14:45;;;;;;;1.13;0.20;;;;;;;20.90;52.72;101399.22;7386284;19;20646;-78
2022/07/02 10:17:15;;;;;;;4.97;0.10;;;;;;;20.90;52.56;101398.41;7384217;19;20059;-78
2022/07/02 10:19:42;;;;;;;4.03;0.17;;;;;;;20.89;52.73;101408.28;7384216;19;20024;-76
2022/07/02 10:22:09;;;;;;;2.47;0.30;;;;;;;20.91;52.53;101408.09;7385788;19;20331;-76
2022/07/02 10:24:36;;;;;;;0.60;0.10;;;;;;;20.89;52.61;101400.25;7386808;19;20018;-77
2022/07/02 10:27:05;;;;;;;0.75;0.35;;;;;;;20.85;53.74;101401.69;7387971;19;20010;-75
2022/07/02 10:29:33;;;;;;;4.38;0.30;;;;;;;20.83;52.92;101395.72;7387176;19;20035;-77
2022/07/02 10:32:28;;;;;;;4.85;0.68;;;;;;;20.83;53.91;101386.88;7386282;19;20620;-76
2022/07/02 10:35:10;;;;;;;1.80;0.30;;;;;;;20.86;53.01;101381.94;7383240;19;20047;-76
2022/07/02 10:37:43;;;;;;;2.25;0.20;;;;;;;20.88;52.53;101377.19;7386026;19;20122;-75
2022/07/02 10:40:24;;;;;;;1.85;0.30;;;;;;;20.92;53.07;101377.63;7385936;19;20074;-76
2022/07/02 10:43:16;;;;;;;2.40;0.30;;;;;;;21.00;53.16;101374.72;7385945;19;20025;-76
2022/07/02 10:45:43;;;;;;;4.47;0.40;;;;;;;21.03;52.42;101368.16;7386677;19;20070;-76
2022/07/02 10:48:12;;;;;;;2.03;0.20;;;;;;;21.00;53.38;101376.56;7385530;19;20018;-76
2022/07/02 10:50:43;;;;;;;2.03;0.30;;;;;;;20.97;52.97;101364.44;7384510;19;20035;-77
2022/07/02 10:53:14;;;;;;;2.35;0.25;;;;;;;20.98;53.92;101367.94;7384052;19;20022;-76
2022/07/02 10:55:57;;;;;;;1.42;0.25;;;;;;;20.99;52.81;101369.56;7386617;19;20037;-77
2022/07/02 10:58:26;;;;;;;8.13;0.30;;;;;;;21.00;54.04;101372.03;7382628;19;20015;-77
2022/07/02 11:01:27;;;;;;;1.50;0.20;;;;;;;21.04;53.44;101369.78;7383691;19;20081;-76
2022/07/02 11:04:03;;;;;;;1.70;0.20;;;;;;;21.09;52.83;101372.66;7381366;19;20011;-76
2022/07/02 11:06:31;;;;;;;2.17;0.10;;;;;;;21.13;52.54;101363.19;7385177;19;20022;-76
2022/07/02 11:08:59;;;;;;;0.73;0.10;;;;;;;21.18;52.45;101369.56;7384691;19;20025;-77
2022/07/02 11:11:35;;;;;;;1.33;0.10;;;;;;;21.23;52.69;101366.28;7386096;19;20011;-76
2022/07/02 11:14:09;;;;;;;2.75;0.20;;;;;;;21.27;53.39;101364.84;7387297;19;20014;-75
2022/07/02 11:16:53;;;;;;;1.67;0.13;;;;;;;21.30;53.26;101370.59;7383180;19;20006;-75
2022/07/02 11:19:25;;;;;;;2.88;0.10;;;;;;;21.34;52.77;101361.09;7383089;19;20014;-75
2022/07/02 11:21:59;;;;;;;1.42;0.22;;;;;;;21.30;53.02;101367.91;7383612;19;20081;-75
2022/07/02 11:24:28;;;;;;;1.00;0.20;;;;;;;21.27;52.12;101362.16;7385194;19;20578;-75
2022/07/02 11:26:57;;;;;;;1.92;0.20;;;;;;;21.29;52.33;101363.56;7383240;19;20018;-77
2022/07/02 11:29:24;;;;;;;1.75;0.10;;;;;;;21.34;52.42;101365.63;7384213;19;20015;-74
2022/07/02 11:31:55;;;;;;;2.00;0.20;;;;;;;21.38;52.69;101348.13;7384393;19;20093;-76
2022/07/02 11:34:25;;;;;;;1.75;0.10;;;;;;;21.42;52.19;101353.88;7384727;19;20010;-76
2022/07/02 11:36:52;;;;;;;1.70;0.15;;;;;;;21.46;52.50;101344.38;7379705;19;20396;-75